Terminal Aerodrome Forecast
Issued by NWS

Home | Current Version | Previous Version | Graphics & Text | Print | Product List | Glossary On
Versions: 1 2 3 4 5 6 7 8 9 10 11 12 13 14 15 16
052
FTUS43 KMPX 210520
TAFRNH
TAF
KRNH 210520Z 2106/2206 00000KT P6SM BKN180
     FM211600 20004KT P6SM SKC=

USA.gov is the U.S. government's official web portal to all federal, state and local government web resources and services.